Time;durP1;ratioP1;P1;durP2;ratioP2;P2;SDS_P1;SDS_P2;PMS_P1;PMS_P2;Temp;Humidity;BMP_temperature;BMP_pressure;BME280_temperature;BME280_humidity;BME280_pressure;Samples;Min_cycle;Max_cycle;Signal;HPM_P1;HPM_P2
2022/11/14 00:29:11;;;;;;;16.50;7.28;;;7.00;99.90;;;;;;6239001;22;20344;-90
2022/11/14 00:31:37;;;;;;;16.35;6.47;;;7.10;99.90;;;;;;6264635;22;20047;-88
2022/11/14 00:34:03;;;;;;;16.47;7.40;;;7.00;99.90;;;;;;6263096;22;20073;-92
2022/11/14 00:36:28;;;;;;;19.87;8.33;;;7.00;99.90;;;;;;6261110;22;20015;-88
2022/11/14 00:38:54;;;;;;;16.60;7.97;;;7.10;99.90;;;;;;6241888;22;20019;-88
2022/11/14 00:45:26;;;;;;;18.63;7.93;;;7.00;99.90;;;;;;6310233;22;20455;-89
2022/11/14 00:47:52;;;;;;;19.10;8.35;;;7.10;99.90;;;;;;6257400;22;20429;-89
2022/11/14 00:50:18;;;;;;;23.10;9.33;;;7.10;99.90;;;;;;6232029;22;20019;-91
2022/11/14 00:52:43;;;;;;;20.90;9.60;;;7.10;99.90;;;;;;6206943;22;20019;-89
2022/11/14 00:55:37;;;;;;;23.20;10.40;;;7.10;99.90;;;;;;6257157;22;20038;-88
2022/11/14 00:58:31;;;;;;;22.83;11.15;;;7.10;99.90;;;;;;6282792;22;20030;-91
2022/11/14 01:00:57;;;;;;;21.20;9.45;;;7.10;99.90;;;;;;6257295;22;20452;-89
2022/11/14 01:03:23;;;;;;;23.20;10.33;;;7.10;99.90;;;;;;6233064;22;20069;-95
2022/11/14 01:05:50;;;;;;;23.52;9.95;;;7.10;99.90;;;;;;6264421;22;20010;-90
2022/11/14 01:08:18;;;;;;;23.00;10.57;;;7.10;99.90;;;;;;6285829;22;20003;-88
2022/11/14 01:10:49;;;;;;;27.25;11.20;;;7.10;99.90;;;;;;6276370;22;20019;-89
2022/11/14 01:13:39;;;;;;;23.63;10.95;;;7.00;99.90;;;;;;6258413;22;20016;-90
2022/11/14 01:16:05;;;;;;;25.70;11.43;;;7.10;99.90;;;;;;6256876;22;20015;-93
2022/11/14 01:18:31;;;;;;;27.92;12.57;;;7.10;99.90;;;;;;6257399;22;20043;-90
2022/11/14 01:20:58;;;;;;;25.27;11.30;;;7.10;99.90;;;;;;6257769;22;20073;-93
2022/11/14 01:23:24;;;;;;;;;;;7.00;99.90;;;;;;6257651;22;20012;-88
2022/11/14 01:25:49;;;;;;;24.85;12.32;;;7.00;99.90;;;;;;6257178;22;19951;-95
2022/11/14 01:28:18;;;;;;;22.67;10.47;;;7.00;99.90;;;;;;6238520;22;20021;-89
2022/11/14 01:30:47;;;;;;;23.30;10.95;;;7.00;99.90;;;;;;6133270;23;20396;-91
2022/11/14 01:33:13;;;;;;;25.45;10.82;;;7.00;99.90;;;;;;6132457;23;20020;-89
2022/11/14 01:35:40;;;;;;;26.90;12.83;;;7.00;99.90;;;;;;6132613;23;20013;-89
2022/11/14 01:38:17;;;;;;;30.88;13.00;;;6.90;99.90;;;;;;6156680;23;20017;-91
2022/11/14 01:40:45;;;;;;;27.02;12.50;;;7.00;99.90;;;;;;6132927;23;20365;-90
2022/11/14 01:43:46;;;;;;;28.23;12.00;;;7.00;99.90;;;;;;6132122;23;20087;-92
2022/11/14 01:46:15;;;;;;;24.10;12.20;;;6.90;99.90;;;;;;6136215;23;20017;-92
2022/11/14 01:56:46;;;;;;;26.25;11.85;;;6.90;99.90;;;;;;6180820;23;20025;-92
2022/11/14 01:59:16;;;;;;;32.35;12.70;;;6.90;99.90;;;;;;6132178;23;20458;-91
2022/11/14 03:47:36;;;;;;;29.35;12.63;;;7.10;99.90;;;;;;6199391;22;20025;-93
2022/11/14 03:50:10;;;;;;;;;;;7.10;99.90;;;;;;6192198;23;20056;-91
2022/11/14 03:52:37;;;;;;;26.50;11.98;;;7.10;99.90;;;;;;6166755;22;19916;-91
2022/11/14 03:55:25;;;;;;;24.27;11.38;;;7.10;99.90;;;;;;6192450;23;20031;-91
2022/11/14 03:57:51;;;;;;;23.63;10.73;;;7.10;99.90;;;;;;6191755;23;20021;-92
2022/11/14 04:00:21;;;;;;;27.45;11.68;;;7.10;99.90;;;;;;6190730;23;20058;-94
2022/11/14 04:02:53;;;;;;;24.43;11.47;;;7.10;99.90;;;;;;6193975;23;20017;-93
2022/11/14 04:05:32;;;;;;;28.35;11.82;;;7.10;99.90;;;;;;6144444;23;20021;-92
2022/11/14 04:08:08;;;;;;;28.50;12.20;;;7.10;99.90;;;;;;6141818;23;20532;-93
2022/11/14 04:47:35;;;;;;;32.33;14.10;;;7.10;99.90;;;;;;6129625;22;20316;-90
2022/11/14 04:50:01;;;;;;;29.02;12.93;;;7.10;99.90;;;;;;6130427;23;20021;-91
2022/11/14 04:52:26;;;;;;;32.87;14.10;;;7.10;99.90;;;;;;6081510;23;20092;-92
2022/11/14 04:54:54;;;;;;;30.60;14.10;;;7.10;99.90;;;;;;6083976;23;20004;-91
2022/11/14 04:57:19;;;;;;;;;;;7.00;99.90;;;;;;6082661;23;20037;-91
2022/11/14 05:07:08;;;;;;;29.17;12.85;;;7.00;99.90;;;;;;6146317;23;20021;-93
2022/11/14 05:44:00;;;;;;;25.15;11.60;;;6.80;99.90;;;;;;6186223;23;20021;-94
2022/11/14 05:46:25;;;;;;;25.40;11.60;;;6.80;99.90;;;;;;6163053;23;20112;-90
2022/11/14 05:48:51;;;;;;;26.73;12.17;;;6.80;99.90;;;;;;6136736;23;20082;-94
2022/11/14 05:51:17;;;;;;;26.63;12.13;;;6.70;99.90;;;;;;6164214;22;20021;-91
2022/11/14 05:53:42;;;;;;;27.60;11.77;;;6.70;99.90;;;;;;6163255;23;20019;-91
2022/11/14 06:00:11;;;;;;;28.77;12.52;;;6.70;99.90;;;;;;6184330;23;20032;-88
2022/11/14 06:02:37;;;;;;;24.92;11.93;;;6.60;99.90;;;;;;6131440;23;20017;-94
2022/11/14 06:05:03;;;;;;;27.97;12.27;;;6.60;99.90;;;;;;6156579;23;20098;-90
2022/11/14 06:07:29;;;;;;;26.07;11.17;;;6.60;99.90;;;;;;6156863;23;20082;-92
2022/11/14 06:10:13;;;;;;;21.97;10.23;;;6.60;99.90;;;;;;6181418;23;20100;-88
2022/11/14 06:12:39;;;;;;;23.95;10.98;;;6.60;99.90;;;;;;6107827;23;20021;-88
2022/11/14 06:15:05;;;;;;;27.73;12.57;;;6.60;99.90;;;;;;6182988;23;20067;-87
2022/11/14 06:17:31;;;;;;;23.92;10.63;;;6.60;99.90;;;;;;6159606;23;20017;-88
2022/11/14 06:19:56;;;;;;;30.50;12.23;;;6.60;99.90;;;;;;6193566;23;20023;-89
2022/11/14 06:22:22;;;;;;;27.03;12.23;;;6.50;99.90;;;;;;6174062;23;20017;-91
2022/11/14 06:24:48;;;;;;;28.73;11.80;;;6.50;99.90;;;;;;6281372;22;20048;-92
2022/11/14 06:27:13;;;;;;;26.53;11.63;;;6.60;99.90;;;;;;6134105;23;20017;-89
2022/11/14 06:29:39;;;;;;;29.07;12.90;;;6.60;99.90;;;;;;6182239;23;20021;-89
2022/11/14 06:32:05;;;;;;;29.27;11.60;;;6.60;99.90;;;;;;6156339;23;20017;-91
2022/11/14 06:34:31;;;;;;;26.25;11.52;;;6.60;99.90;;;;;;6156261;23;20017;-88
2022/11/14 06:36:57;;;;;;;22.63;10.00;;;6.50;99.90;;;;;;6180307;23;20013;-89
2022/11/14 06:39:25;;;;;;;25.97;11.90;;;6.50;99.90;;;;;;6155928;22;20021;-89
2022/11/14 06:41:51;;;;;;;29.38;12.32;;;6.60;99.90;;;;;;6154540;23;20450;-89
2022/11/14 06:44:16;;;;;;;26.73;11.30;;;6.60;99.90;;;;;;6155248;23;20100;-88
2022/11/14 06:46:42;;;;;;;29.30;12.37;;;6.60;99.90;;;;;;6131002;23;20028;-89
2022/11/14 06:49:08;;;;;;;27.07;11.37;;;6.60;99.90;;;;;;6131202;23;20017;-90
2022/11/14 06:51:34;;;;;;;28.80;12.33;;;6.60;99.90;;;;;;6155405;23;20024;-91
2022/11/14 06:54:00;;;;;;;26.20;12.13;;;6.60;99.90;;;;;;6156088;22;20157;-89
2022/11/14 06:56:28;;;;;;;29.27;12.40;;;6.60;99.90;;;;;;6130719;23;20017;-89
2022/11/14 06:58:54;;;;;;;26.73;11.23;;;6.60;99.90;;;;;;6155640;22;20223;-89
2022/11/14 07:01:43;;;;;;;27.90;11.37;;;6.60;99.90;;;;;;6130825;23;20017;-89
2022/11/14 07:04:12;;;;;;;27.75;11.50;;;6.60;99.90;;;;;;6131424;23;20019;-90
2022/11/14 07:06:37;;;;;;;28.30;11.80;;;6.60;99.90;;;;;;6130232;23;20103;-89
2022/11/14 07:09:18;;;;;;;27.63;11.67;;;6.60;99.90;;;;;;6155286;23;20016;-89
2022/11/14 07:11:45;;;;;;;26.08;11.60;;;6.60;99.90;;;;;;6105839;23;20021;-91
2022/11/14 07:14:11;;;;;;;;;;;6.60;99.90;;;;;;6106688;23;20350;-91
2022/11/14 07:16:37;;;;;;;25.80;11.02;;;6.60;99.90;;;;;;6259569;22;19917;-90
2022/11/14 07:19:10;;;;;;;29.55;12.13;;;6.60;99.90;;;;;;6130956;23;20013;-91
2022/11/14 07:21:36;;;;;;;27.23;13.00;;;6.60;99.90;;;;;;6084283;23;20017;-91
2022/11/14 07:24:02;;;;;;;27.13;11.60;;;6.60;99.90;;;;;;6155125;23;20078;-91
2022/11/14 07:26:27;;;;;;;29.40;12.20;;;6.60;99.90;;;;;;6130428;23;20095;-90
2022/11/14 07:28:53;;;;;;;24.87;10.93;;;6.60;99.90;;;;;;6154870;23;20087;-90
2022/11/14 07:31:19;;;;;;;25.43;12.40;;;6.60;99.90;;;;;;6106188;23;20021;-89
2022/11/14 07:33:46;;;;;;;29.80;12.25;;;6.70;99.90;;;;;;6154595;23;20017;-90
2022/11/14 07:36:20;;;;;;;29.67;12.45;;;6.60;99.90;;;;;;6132204;23;20024;-90
2022/11/14 07:38:46;;;;;;;29.77;11.83;;;6.60;99.90;;;;;;6154758;23;20088;-91
2022/11/14 07:41:14;;;;;;;31.50;12.53;;;6.60;99.90;;;;;;6155560;22;20513;-90
2022/11/14 07:43:50;;;;;;;26.23;10.95;;;6.60;99.90;;;;;;6154233;23;20021;-90
2022/11/14 08:16:12;;;;;;;27.48;11.95;;;6.40;99.90;;;;;;6181982;23;20021;-94
2022/11/14 08:18:40;;;;;;;26.45;11.73;;;6.40;99.90;;;;;;6157365;23;20023;-92
2022/11/14 08:21:06;;;;;;;29.47;12.80;;;6.40;99.90;;;;;;6133507;23;20063;-93
2022/11/14 08:23:36;;;;;;;29.73;13.88;;;6.40;99.90;;;;;;6158034;23;20070;-93
2022/11/14 08:26:05;;;;;;;27.73;12.77;;;6.50;99.90;;;;;;6157205;22;20005;-90
2022/11/14 08:28:33;;;;;;;29.73;13.33;;;6.50;99.90;;;;;;6154889;22;20046;-96
2022/11/14 08:31:01;;;;;;;28.55;12.15;;;6.40;99.90;;;;;;6137131;23;20096;-92
2022/11/14 11:35:21;;;;;;;25.85;11.32;;;7.60;99.90;;;;;;6205581;22;20027;-93
2022/11/14 11:37:53;;;;;;;24.10;11.02;;;7.70;99.90;;;;;;6231087;22;20074;-95
2022/11/14 11:40:22;;;;;;;25.23;10.95;;;7.70;99.90;;;;;;6282261;22;20022;-96
2022/11/14 11:42:51;;;;;;;23.83;11.15;;;7.80;99.90;;;;;;6257066;22;20025;-94
2022/11/14 11:45:18;;;;;;;26.17;11.38;;;7.80;99.90;;;;;;6282145;22;20015;-94
2022/11/14 11:48:07;;;;;;;25.70;11.98;;;7.90;99.90;;;;;;6258883;22;20034;-93
2022/11/14 11:50:33;;;;;;;27.42;11.93;;;8.00;99.90;;;;;;6265334;22;20015;-94
2022/11/14 11:53:16;;;;;;;22.43;10.90;;;8.00;99.90;;;;;;6281178;22;20049;-96
2022/11/14 11:55:49;;;;;;;25.10;11.40;;;8.10;99.90;;;;;;6281368;22;20019;-95
2022/11/14 16:39:37;;;;;;;18.02;8.07;;;7.10;99.90;;;;;;6121776;22;20026;-91
2022/11/14 16:42:03;;;;;;;17.00;7.93;;;7.20;99.90;;;;;;6050415;23;20061;-93
2022/11/14 16:44:29;;;;;;;19.77;8.82;;;7.20;99.90;;;;;;6076415;23;20074;-93
2022/11/14 17:59:46;;;;;;;17.33;9.05;;;7.40;99.90;;;;;;6196741;22;20050;-93
2022/11/14 18:02:18;;;;;;;17.52;9.15;;;7.30;99.90;;;;;;6131724;23;20025;-93
2022/11/14 18:04:44;;;;;;;20.10;8.93;;;7.20;99.90;;;;;;6156692;23;20391;-92
2022/11/14 18:07:44;;;;;;;22.50;11.40;;;7.20;99.90;;;;;;6132549;23;20020;-93
2022/11/14 19:12:51;;;;;;;28.15;11.80;;;6.80;99.90;;;;;;6170066;22;20017;-90
2022/11/14 19:18:43;;;;;;;24.50;10.70;;;6.80;99.90;;;;;;6180481;22;20056;-92
2022/11/14 19:21:09;;;;;;;25.23;10.85;;;6.70;99.90;;;;;;6260611;22;20032;-94
2022/11/14 19:23:35;;;;;;;25.35;11.10;;;6.70;99.90;;;;;;6131795;23;20041;-93
2022/11/14 19:26:01;;;;;;;24.57;11.07;;;6.60;99.90;;;;;;6156257;23;20017;-96
2022/11/14 20:32:19;;;;;;;20.17;9.73;;;7.00;99.90;;;;;;6155427;22;20029;-93
2022/11/14 20:34:45;;;;;;;21.13;10.03;;;7.00;99.90;;;;;;6133507;23;20020;-90
2022/11/14 20:37:10;;;;;;;21.00;10.23;;;7.00;99.90;;;;;;6285542;22;20021;-94
2022/11/14 20:39:36;;;;;;;27.07;11.00;;;7.00;99.90;;;;;;6180556;23;20021;-93
2022/11/14 20:42:02;;;;;;;20.50;9.63;;;7.00;99.90;;;;;;6180470;23;20017;-93
2022/11/14 20:44:28;;;;;;;20.20;9.53;;;7.10;99.90;;;;;;6155600;23;20118;-93
2022/11/14 20:46:55;;;;;;;20.07;9.07;;;7.10;99.90;;;;;;6156064;23;20017;-92
2022/11/14 20:49:49;;;;;;;19.65;9.82;;;7.10;99.90;;;;;;6132962;23;20021;-92
2022/11/14 20:55:40;;;;;;;22.75;9.85;;;7.10;99.90;;;;;;6181677;23;20025;-93
2022/11/14 20:58:05;;;;;;;20.03;8.97;;;7.20;99.90;;;;;;6157602;23;20016;-93
2022/11/14 21:00:31;;;;;;;22.03;9.67;;;7.20;99.90;;;;;;6157746;23;20025;-94
2022/11/14 21:02:57;;;;;;;20.70;9.13;;;7.20;99.90;;;;;;6157907;23;20013;-94
2022/11/14 21:05:23;;;;;;;20.83;9.50;;;7.20;99.90;;;;;;6156597;23;20021;-92
2022/11/14 21:07:48;;;;;;;16.73;8.57;;;7.20;99.90;;;;;;6157234;23;20017;-93
2022/11/14 21:39:54;;;;;;;;;;;;;;;;;;;;;
2022/11/14 23:15:16;;;;;;;17.73;7.93;;;7.80;99.90;;;;;;6182692;22;20052;-89
2022/11/14 23:21:23;;;;;;;15.93;7.40;;;7.80;99.90;;;;;;6177807;23;20021;-91
2022/11/14 23:23:53;;;;;;;17.40;8.43;;;7.80;99.90;;;;;;6131850;23;20017;-93
2022/11/14 23:26:19;;;;;;;15.63;7.60;;;7.80;99.90;;;;;;6131188;23;20021;-91
2022/11/14 23:29:25;;;;;;;18.57;7.80;;;7.90;99.90;;;;;;6106999;23;20150;-90
2022/11/14 23:32:43;;;;;;;16.35;7.13;;;7.80;99.90;;;;;;6159066;23;20032;-89
2022/11/14 23:35:15;;;;;;;16.45;7.85;;;7.80;99.90;;;;;;6135440;23;20430;-89
